Time,TemperatureF,DewpointF,PressureIn,WindDirection,WindDirectionDegrees,WindSpeedMPH,WindSpeedGustMPH,Humidity,HourlyPrecipIn,Conditions,Clouds,dailyrainin,SoftwareType,DateUTC
2013-04-08 00:02:00,38.0,29.0,-100.00,NNW,345,0.0,2.0,67,0.00,,,-99.99,,2013-04-08 06:02:00,
2013-04-08 00:12:00,38.0,28.0,-100.00,South,175,0.0,0.0,67,0.00,,,-99.99,,2013-04-08 06:12:00,
2013-04-08 00:21:00,38.0,28.0,-100.00,South,175,0.0,0.0,67,0.00,,,-99.99,,2013-04-08 06:21:00,
2013-04-08 00:32:00,38.0,29.0,-100.00,NNW,330,0.0,0.0,68,0.00,,,-99.99,,2013-04-08 06:32:00,
2013-04-08 00:42:00,38.0,29.0,-100.00,ESE,120,0.0,0.0,68,0.00,,,-99.99,,2013-04-08 06:42:00,
2013-04-08 00:52:00,38.0,29.0,-100.00,South,190,0.0,2.0,69,0.00,,,-99.99,,2013-04-08 06:52:00,
2013-04-08 01:02:00,38.0,29.0,-100.00,East,85,2.0,3.0,69,0.00,,,-99.99,,2013-04-08 07:02:00,
2013-04-08 01:12:00,38.0,29.0,-100.00,SSW,210,1.0,3.0,68,0.00,,,-99.99,,2013-04-08 07:12:00,
2013-04-08 01:21:00,38.0,29.0,-100.00,SSW,210,1.0,3.0,68,0.00,,,-99.99,,2013-04-08 07:21:00,
2013-04-08 01:32:00,38.0,29.0,-100.00,SSW,210,1.0,3.0,68,0.00,,,-99.99,,2013-04-08 07:32:00,
2013-04-08 01:42:00,39.0,29.0,-100.00,ESE,115,0.0,0.0,67,0.00,,,-99.99,,2013-04-08 07:42:00,
2013-04-08 01:52:00,39.0,29.0,-100.00,ESE,115,0.0,0.0,67,0.00,,,-99.99,,2013-04-08 07:52:00,
2013-04-08 02:02:00,40.0,30.0,-100.00,East,100,3.0,9.0,67,0.00,,,-99.99,,2013-04-08 08:02:00,
2013-04-08 02:11:00,40.0,30.0,-100.00,East,100,3.0,9.0,67,0.00,,,-99.99,,2013-04-08 08:11:00,
2013-04-08 02:21:00,40.0,30.0,-100.00,East,100,3.0,9.0,67,0.00,,,-99.99,,2013-04-08 08:21:00,
2013-04-08 02:32:00,44.0,28.0,-100.00,SSE,160,1.0,4.0,52,0.00,,,-99.99,,2013-04-08 08:32:00,
2013-04-08 02:42:00,47.0,27.0,-100.00,East,100,4.0,15.0,43,0.00,,,-99.99,,2013-04-08 08:42:00,
2013-04-08 02:52:00,47.0,26.0,-100.00,ESE,120,8.0,12.0,43,0.00,,,-99.99,,2013-04-08 08:52:00,
2013-04-08 03:01:00,47.0,26.0,-100.00,East,100,7.0,11.0,42,0.00,,,-99.99,,2013-04-08 09:01:00,
2013-04-08 03:12:00,47.0,25.0,-100.00,East,95,5.0,11.0,42,0.00,,,-99.99,,2013-04-08 09:12:00,
2013-04-08 03:22:00,46.0,25.0,-100.00,East,100,2.0,8.0,42,0.00,,,-99.99,,2013-04-08 09:22:00,
2013-04-08 03:32:00,46.0,25.0,-100.00,ENE,60,5.0,11.0,42,0.00,,,-99.99,,2013-04-08 09:32:00,
2013-04-08 03:42:00,46.0,24.0,-100.00,ENE,65,6.0,13.0,42,0.00,,,-99.99,,2013-04-08 09:42:00,
2013-04-08 03:52:00,46.0,24.0,-100.00,East,95,6.0,12.0,41,0.00,,,-99.99,,2013-04-08 09:52:00,
2013-04-08 04:02:00,46.0,24.0,-100.00,North,350,0.0,6.0,41,0.00,,,-99.99,,2013-04-08 10:02:00,
2013-04-08 04:12:00,45.0,24.0,-100.00,SW,215,1.0,7.0,42,0.00,,,-99.99,,2013-04-08 10:12:00,
2013-04-08 04:22:00,44.0,24.0,-100.00,East,100,4.0,7.0,44,0.00,,,-99.99,,2013-04-08 10:22:00,
2013-04-08 04:32:00,44.0,24.0,-100.00,SW,220,2.0,6.0,45,0.00,,,-99.99,,2013-04-08 10:32:00,
2013-04-08 04:42:00,42.0,24.0,-100.00,South,190,0.0,3.0,46,0.00,,,-99.99,,2013-04-08 10:42:00,
2013-04-08 04:52:00,42.0,24.0,-100.00,East,90,1.0,7.0,48,0.00,,,-99.99,,2013-04-08 10:52:00,
2013-04-08 05:02:00,41.0,24.0,-100.00,SSE,160,0.0,4.0,50,0.00,,,-99.99,,2013-04-08 11:02:00,
2013-04-08 05:12:00,40.0,25.0,-100.00,SE,140,2.0,4.0,53,0.00,,,-99.99,,2013-04-08 11:12:00,
2013-04-08 05:22:00,40.0,25.0,-100.00,SE,135,0.0,2.0,56,0.00,,,-99.99,,2013-04-08 11:22:00,
2013-04-08 05:32:00,39.0,26.0,-100.00,SW,220,0.0,0.0,58,0.00,,,-99.99,,2013-04-08 11:32:00,
2013-04-08 05:42:00,39.0,26.0,-100.00,SSE,155,0.0,2.0,60,0.00,,,-99.99,,2013-04-08 11:42:00,
2013-04-08 05:52:00,38.0,26.0,-100.00,South,190,0.0,2.0,60,0.00,,,-99.99,,2013-04-08 11:52:00,
2013-04-08 06:01:00,38.0,26.0,-100.00,NW,310,0.0,2.0,61,0.00,,,-99.99,,2013-04-08 12:01:00,
2013-04-08 06:12:00,38.0,26.0,-100.00,South,180,0.0,4.0,61,0.00,,,-99.99,,2013-04-08 12:12:00,
2013-04-08 06:21:00,39.0,27.0,-100.00,SSW,195,2.0,6.0,61,0.00,,,-99.99,,2013-04-08 12:21:00,
2013-04-08 06:32:00,39.0,26.0,-100.00,SE,140,0.0,6.0,60,0.00,,,-99.99,,2013-04-08 12:32:00,
2013-04-08 06:42:00,39.0,26.0,-100.00,East,95,0.0,2.0,59,0.00,,,-99.99,,2013-04-08 12:42:00,
2013-04-08 06:52:00,39.0,26.0,-100.00,SSE,160,0.0,5.0,57,0.00,,,-99.99,,2013-04-08 12:52:00,
2013-04-08 07:02:00,39.0,25.0,-100.00,SE,140,4.0,6.0,57,0.00,,,-99.99,,2013-04-08 13:02:00,
2013-04-08 07:12:00,38.0,25.0,-100.00,SSE,165,0.0,6.0,57,0.00,,,-99.99,,2013-04-08 13:12:00,
2013-04-08 07:21:00,38.0,24.0,-100.00,SSW,205,1.0,3.0,58,0.00,,,-99.99,,2013-04-08 13:21:00,
2013-04-08 07:32:00,38.0,25.0,-100.00,SE,135,0.0,3.0,58,0.00,,,-99.99,,2013-04-08 13:32:00,
2013-04-08 07:42:00,39.0,26.0,-100.00,SSW,195,0.0,1.0,58,0.00,,,-99.99,,2013-04-08 13:42:00,
2013-04-08 07:52:00,39.0,26.0,-100.00,ESE,115,1.0,3.0,58,0.00,,,-99.99,,2013-04-08 13:52:00,
2013-04-08 08:02:00,40.0,26.0,-100.00,SSW,205,0.0,6.0,57,0.00,,,-99.99,,2013-04-08 14:02:00,
2013-04-08 08:12:00,41.0,26.0,-100.00,East,85,3.0,6.0,55,0.00,,,-99.99,,2013-04-08 14:12:00,
2013-04-08 08:21:00,42.0,26.0,-100.00,ESE,120,6.0,9.0,50,0.00,,,-99.99,,2013-04-08 14:21:00,
2013-04-08 08:32:00,45.0,25.0,-100.00,NW,320,3.0,9.0,46,0.00,,,-99.99,,2013-04-08 14:32:00,
2013-04-08 08:42:00,45.0,25.0,-100.00,SW,215,0.0,4.0,45,0.00,,,-99.99,,2013-04-08 14:42:00,
2013-04-08 08:52:00,46.0,26.0,-100.00,West,260,2.0,3.0,45,0.00,,,-99.99,,2013-04-08 14:52:00,
2013-04-08 09:01:00,46.0,25.0,-100.00,SE,130,7.0,11.0,43,0.00,,,-99.99,,2013-04-08 15:01:00,
2013-04-08 09:12:00,49.0,24.0,-100.00,SSE,155,7.0,16.0,37,0.00,,,-99.99,,2013-04-08 15:12:00,
2013-04-08 09:21:00,51.0,24.0,-100.00,South,170,6.0,24.0,33,0.00,,,-99.99,,2013-04-08 15:21:00,
2013-04-08 09:33:00,52.0,24.0,-100.00,WSW,240,1.0,10.0,32,0.00,,,-99.99,,2013-04-08 15:33:00,
2013-04-08 09:42:00,53.0,23.0,-100.00,SSW,210,0.0,6.0,31,0.00,,,-99.99,,2013-04-08 15:42:00,
2013-04-08 09:52:00,53.0,23.0,-100.00,SE,135,4.0,6.0,30,0.00,,,-99.99,,2013-04-08 15:52:00,
2013-04-08 10:02:00,55.0,24.0,-100.00,SE,145,2.0,7.0,29,0.00,,,-99.99,,2013-04-08 16:02:00,
2013-04-08 10:12:00,55.0,23.0,-100.00,SSW,195,0.0,6.0,28,0.00,,,-99.99,,2013-04-08 16:12:00,
2013-04-08 10:22:00,56.0,23.0,-100.00,ESE,120,2.0,6.0,27,0.00,,,-99.99,,2013-04-08 16:22:00,
2013-04-08 10:32:00,56.0,23.0,-100.00,ESE,120,2.0,6.0,27,0.00,,,-99.99,,2013-04-08 16:32:00,
2013-04-08 10:52:00,57.0,23.0,-100.00,North,5,1.0,9.0,26,0.00,,,-99.99,,2013-04-08 16:52:00,
2013-04-08 11:02:00,58.0,23.0,-100.00,SE,130,4.0,14.0,25,0.00,,,-99.99,,2013-04-08 17:02:00,
2013-04-08 11:11:00,59.0,22.0,-100.00,SE,130,11.0,22.0,23,0.00,,,-99.99,,2013-04-08 17:11:00,
2013-04-08 11:22:00,59.0,22.0,-100.00,SE,135,13.0,17.0,23,0.00,,,-99.99,,2013-04-08 17:22:00,
2013-04-08 11:32:00,59.0,21.0,-100.00,SE,130,12.0,21.0,22,0.00,,,-99.99,,2013-04-08 17:32:00,
2013-04-08 11:42:00,60.0,21.0,-100.00,SE,140,9.0,17.0,22,0.00,,,-99.99,,2013-04-08 17:42:00,
2013-04-08 11:51:00,61.0,22.0,-100.00,ESE,120,12.0,25.0,22,0.00,,,-99.99,,2013-04-08 17:51:00,
2013-04-08 12:02:00,61.0,22.0,-100.00,SE,140,14.0,22.0,21,0.00,,,-99.99,,2013-04-08 18:02:00,
2013-04-08 12:11:00,62.0,22.0,-100.00,ESE,105,5.0,24.0,21,0.00,,,-99.99,,2013-04-08 18:11:00,
2013-04-08 12:22:00,61.0,22.0,-100.00,SE,125,12.0,22.0,21,0.00,,,-99.99,,2013-04-08 18:22:00,
2013-04-08 12:32:00,61.0,21.0,-100.00,ESE,115,12.0,23.0,21,0.00,,,-99.99,,2013-04-08 18:32:00,
2013-04-08 12:42:00,62.0,21.0,-100.00,SE,125,12.0,22.0,21,0.00,,,-99.99,,2013-04-08 18:42:00,
2013-04-08 12:52:00,64.0,23.0,-100.00,SW,235,3.0,12.0,20,0.00,,,-99.99,,2013-04-08 18:52:00,
2013-04-08 13:02:00,64.0,22.0,-100.00,ESE,115,7.0,19.0,20,0.00,,,-99.99,,2013-04-08 19:02:00,
2013-04-08 13:12:00,65.0,23.0,-100.00,SE,125,6.0,17.0,19,0.00,,,-99.99,,2013-04-08 19:12:00,
2013-04-08 13:22:00,64.0,21.0,-100.00,SE,130,15.0,24.0,19,0.00,,,-99.99,,2013-04-08 19:22:00,
2013-04-08 13:33:00,62.0,19.0,-100.00,ESE,120,9.0,31.0,18,0.00,,,-99.99,,2013-04-08 19:33:00,
2013-04-08 13:42:00,61.0,19.0,-100.00,SE,125,11.0,29.0,18,0.00,,,-99.99,,2013-04-08 19:42:00,
2013-04-08 13:52:00,61.0,18.0,-100.00,West,260,5.0,17.0,19,0.00,,,-99.99,,2013-04-08 19:52:00,
2013-04-08 14:02:00,56.0,18.0,-100.00,West,280,4.0,14.0,22,0.00,,,-99.99,,2013-04-08 20:02:00,
2013-04-08 14:12:00,55.0,19.0,-100.00,West,275,4.0,20.0,24,0.00,,,-99.99,,2013-04-08 20:12:00,
2013-04-08 14:22:00,56.0,20.0,-100.00,WNW,295,4.0,11.0,24,0.00,,,-99.99,,2013-04-08 20:22:00,
2013-04-08 14:32:00,56.0,21.0,-100.00,West,265,4.0,12.0,25,0.00,,,-99.99,,2013-04-08 20:32:00,
2013-04-08 14:42:00,55.0,20.0,-100.00,NNW,330,9.0,16.0,26,0.00,,,-99.99,,2013-04-08 20:42:00,
2013-04-08 14:52:00,54.0,20.0,-100.00,West,275,4.0,15.0,26,0.00,,,-99.99,,2013-04-08 20:52:00,
2013-04-08 15:01:00,54.0,20.0,-100.00,WSW,240,1.0,12.0,26,0.00,,,-99.99,,2013-04-08 21:01:00,
2013-04-08 15:12:00,54.0,20.0,-100.00,SSW,205,4.0,15.0,26,0.00,,,-99.99,,2013-04-08 21:12:00,
2013-04-08 15:21:00,54.0,20.0,-100.00,SW,225,7.0,16.0,26,0.00,,,-99.99,,2013-04-08 21:21:00,
2013-04-08 15:32:00,52.0,21.0,-100.00,SSW,205,6.0,14.0,29,0.00,,,-99.99,,2013-04-08 21:32:00,
2013-04-08 15:42:00,50.0,22.0,-100.00,SE,140,7.0,10.0,32,0.00,,,-99.99,,2013-04-08 21:42:00,
2013-04-08 15:52:00,49.0,23.0,-100.00,West,260,6.0,9.0,35,0.00,,,-99.99,,2013-04-08 21:52:00,
2013-04-08 16:02:00,49.0,23.0,-100.00,West,260,6.0,9.0,35,0.00,,,-99.99,,2013-04-08 22:02:00,
2013-04-08 16:12:00,48.0,27.0,-100.00,SSW,200,3.0,7.0,44,0.00,,,-99.99,,2013-04-08 22:12:00,
2013-04-08 16:22:00,48.0,29.0,-100.00,NNW,340,4.0,7.0,46,0.00,,,-99.99,,2013-04-08 22:22:00,
2013-04-08 16:32:00,48.0,29.0,-100.00,NNW,340,4.0,7.0,46,0.00,,,-99.99,,2013-04-08 22:32:00,
2013-04-08 16:42:00,48.0,29.0,-100.00,SSE,155,4.0,14.0,47,0.00,,,-99.99,,2013-04-08 22:42:00,
2013-04-08 16:52:00,48.0,29.0,-100.00,SSE,155,4.0,14.0,47,0.00,,,-99.99,,2013-04-08 22:52:00,
2013-04-08 17:02:00,49.0,29.0,-100.00,East,95,5.0,10.0,47,0.00,,,-99.99,,2013-04-08 23:02:00,
2013-04-08 17:12:00,49.0,30.0,-100.00,SSE,150,0.0,3.0,46,0.00,,,-99.99,,2013-04-08 23:12:00,
2013-04-08 17:21:00,49.0,30.0,-100.00,SSE,150,0.0,3.0,46,0.00,,,-99.99,,2013-04-08 23:21:00,
2013-04-08 17:32:00,49.0,30.0,-100.00,SE,145,2.0,9.0,46,0.00,,,-99.99,,2013-04-08 23:32:00,
2013-04-08 17:42:00,49.0,30.0,-100.00,SE,145,1.0,3.0,46,0.00,,,-99.99,,2013-04-08 23:42:00,
2013-04-08 17:52:00,50.0,30.0,-100.00,South,185,0.0,2.0,46,0.00,,,-99.99,,2013-04-08 23:52:00,
2013-04-08 18:02:00,50.0,29.0,-100.00,SE,140,2.0,9.0,45,0.00,,,-99.99,,2013-04-09 00:02:00,
2013-04-08 18:12:00,50.0,30.0,-100.00,SE,135,12.0,21.0,46,0.00,,,-99.99,,2013-04-09 00:12:00,
2013-04-08 18:21:00,48.0,31.0,-100.00,SSE,150,10.0,19.0,51,0.00,,,-99.99,,2013-04-09 00:21:00,
2013-04-08 18:31:00,47.0,32.0,-100.00,ESE,110,11.0,18.0,55,0.00,,,-99.99,,2013-04-09 00:31:00,
2013-04-08 18:42:00,47.0,33.0,-100.00,ESE,115,7.0,15.0,58,0.00,,,-99.99,,2013-04-09 00:42:00,
2013-04-08 18:52:00,46.0,33.0,-100.00,SE,135,9.0,12.0,60,0.00,,,-99.99,,2013-04-09 00:52:00,
2013-04-08 19:02:00,46.0,34.0,-100.00,SE,125,10.0,16.0,61,0.00,,,-99.99,,2013-04-09 01:02:00,
2013-04-08 19:12:00,46.0,34.0,-100.00,SE,130,9.0,12.0,62,0.00,,,-99.99,,2013-04-09 01:12:00,
2013-04-08 19:21:00,46.0,34.0,-100.00,SE,135,10.0,12.0,62,0.00,,,-99.99,,2013-04-09 01:21:00,
2013-04-08 19:32:00,46.0,34.0,-100.00,SE,135,6.0,12.0,62,0.00,,,-99.99,,2013-04-09 01:32:00,
2013-04-08 19:42:00,46.0,34.0,-100.00,SE,135,9.0,13.0,62,0.00,,,-99.99,,2013-04-09 01:42:00,
2013-04-08 19:52:00,46.0,34.0,-100.00,SE,145,4.0,11.0,62,0.00,,,-99.99,,2013-04-09 01:52:00,
2013-04-08 20:02:00,46.0,34.0,-100.00,SE,140,4.0,14.0,62,0.00,,,-99.99,,2013-04-09 02:02:00,
2013-04-08 20:12:00,46.0,34.0,-100.00,SE,140,8.0,12.0,61,0.00,,,-99.99,,2013-04-09 02:12:00,
2013-04-08 20:22:00,46.0,33.0,-100.00,SW,220,1.0,9.0,61,0.00,,,-99.99,,2013-04-09 02:22:00,
2013-04-08 20:32:00,45.0,33.0,-100.00,WSW,255,7.0,12.0,61,0.00,,,-99.99,,2013-04-09 02:32:00,
2013-04-08 20:42:00,43.0,33.0,-100.00,WSW,250,4.0,14.0,65,0.10,,,-99.99,,2013-04-09 02:42:00,
2013-04-08 20:52:00,42.0,33.0,-100.00,North,5,7.0,9.0,69,0.00,,,-99.99,,2013-04-09 02:52:00,
2013-04-08 21:02:00,42.0,34.0,-100.00,NNE,15,1.0,10.0,74,0.00,,,-99.99,,2013-04-09 03:02:00,
2013-04-08 21:12:00,41.0,34.0,-100.00,SW,225,0.0,4.0,76,0.00,,,-99.99,,2013-04-09 03:12:00,
2013-04-08 21:21:00,41.0,35.0,-100.00,North,0,1.0,2.0,78,0.00,,,-99.99,,2013-04-09 03:21:00,
2013-04-08 21:32:00,41.0,35.0,-100.00,WNW,290,0.0,5.0,80,0.00,,,-99.99,,2013-04-09 03:32:00,
2013-04-08 21:42:00,41.0,36.0,-100.00,West,270,1.0,4.0,81,0.00,,,-99.99,,2013-04-09 03:42:00,
2013-04-08 21:52:00,40.0,36.0,-100.00,NNE,20,0.0,3.0,82,0.00,,,-99.99,,2013-04-09 03:52:00,
2013-04-08 22:02:00,41.0,36.0,-100.00,NW,325,4.0,6.0,83,0.00,,,-99.99,,2013-04-09 04:02:00,
2013-04-08 22:12:00,40.0,36.0,-100.00,West,260,1.0,6.0,84,0.00,,,-99.99,,2013-04-09 04:12:00,
2013-04-08 22:22:00,40.0,36.0,-100.00,NW,325,1.0,4.0,84,0.00,,,-99.99,,2013-04-09 04:22:00,
2013-04-08 22:32:00,40.0,36.0,-100.00,WSW,245,0.0,4.0,85,0.00,,,-99.99,,2013-04-09 04:32:00,
2013-04-08 22:42:00,40.0,36.0,-100.00,SW,225,1.0,3.0,85,0.00,,,-99.99,,2013-04-09 04:42:00,
2013-04-08 22:52:00,40.0,36.0,-100.00,SW,225,1.0,3.0,85,0.00,,,-99.99,,2013-04-09 04:52:00,
2013-04-08 23:02:00,40.0,36.0,-100.00,SE,130,0.0,5.0,85,0.00,,,-99.99,,2013-04-09 05:02:00,
2013-04-08 23:12:00,39.0,35.0,-100.00,West,280,2.0,4.0,85,0.00,,,-99.99,,2013-04-09 05:12:00,
2013-04-08 23:22:00,39.0,35.0,-100.00,North,355,0.0,1.0,85,0.00,,,-99.99,,2013-04-09 05:22:00,
2013-04-08 23:32:00,39.0,35.0,-100.00,North,10,0.0,2.0,85,0.00,,,-99.99,,2013-04-09 05:32:00,
2013-04-08 23:42:00,39.0,35.0,-100.00,NNW,340,1.0,3.0,85,0.00,,,-99.99,,2013-04-09 05:42:00,
2013-04-08 23:52:00,39.0,35.0,-100.00,SW,215,0.0,3.0,85,0.00,,,-99.99,,2013-04-09 05:52:00,